HTI weather

Hamilton Island Airport
Hamilton Island, Queensland, Australia

Public forecast

Using degrees Celsius for public forecast. Weather courtesy of forecast.io.

METAR (pilot weather report)

Retrieved 2017/10/21 02:30 UTC (0 seconds ago):

YBHM 210230Z AUTO 11008KT 9999 // SCT028 OVC074 26/21 Q1013

TAF (pilot weather forecast)

Forecast is more than 12 hours old.

Retrieved 2017/10/20 04:00 UTC (22 hours ago):

TAF YBHM 200417Z 2004/2018 11020KT 9999 SCT025 SCT050